Time;durP1;ratioP1;P1;durP2;ratioP2;P2;SDS_P1;SDS_P2;PMS_P1;PMS_P2;Temp;Humidity;BMP_temperature;BMP_pressure;BME280_temperature;BME280_humidity;BME280_pressure;Samples;Min_cycle;Max_cycle;Signal;HPM_P1;HPM_P2
2023/04/04 00:01:16;;;;;;;;;;;2.80;99.90;;;;;;5076401;28;19924;-70
2023/04/04 00:03:42;;;;;;;;;;;2.80;99.90;;;;;;5059646;28;19973;-69
2023/04/04 00:06:07;;;;;;;;;;;2.80;99.90;;;;;;5076218;28;20285;-70
2023/04/04 00:08:33;;;;;;;;;;;2.70;99.90;;;;;;5059171;28;19931;-70
2023/04/04 00:10:59;;;;;;;;;;;2.80;99.90;;;;;;5092938;28;20528;-70
2023/04/04 00:13:25;;;;;;;;;;;2.70;99.90;;;;;;5094142;28;19927;-70
2023/04/04 00:15:51;;;;;;;;;;;2.60;99.90;;;;;;5093706;28;19924;-70
2023/04/04 00:18:17;;;;;;;;;;;2.60;99.90;;;;;;5075962;28;19931;-70
2023/04/04 00:20:42;;;;;;;;;;;2.50;99.90;;;;;;5075460;28;19931;-71
2023/04/04 00:23:09;;;;;;;;;;;2.50;99.90;;;;;;5059508;28;19925;-71
2023/04/04 00:25:38;;;;;;;;;;;2.50;99.90;;;;;;5076632;28;19939;-70
2023/04/04 00:28:04;;;;;;;;;;;2.50;99.90;;;;;;5075262;28;19928;-70
2023/04/04 00:30:30;;;;;;;;;;;2.50;99.90;;;;;;5076018;28;19924;-69
2023/04/04 00:32:56;;;;;;;;;;;2.50;99.90;;;;;;5075148;28;19981;-70
2023/04/04 00:35:22;;;;;;;;;;;2.50;99.90;;;;;;5093827;28;19924;-70
2023/04/04 00:37:48;;;;;;;;;;;2.50;99.90;;;;;;5075276;28;19928;-69
2023/04/04 00:40:13;;;;;;;;;;;2.50;99.90;;;;;;5093597;28;19927;-70
2023/04/04 00:42:39;;;;;;;;;;;2.40;99.90;;;;;;5059168;28;19969;-70
2023/04/04 00:45:06;;;;;;;;;;;2.40;99.90;;;;;;5093193;28;20243;-69
2023/04/04 00:47:32;;;;;;;;;;;2.40;99.90;;;;;;5075329;28;19924;-69
2023/04/04 00:49:58;;;;;;;;;;;2.50;99.90;;;;;;5075020;28;19985;-69
2023/04/04 00:52:23;;;;;;;;;;;2.50;99.90;;;;;;5075435;28;20364;-70
2023/04/04 00:54:49;;;;;;;;;;;2.40;99.90;;;;;;5092967;28;19924;-70
2023/04/04 00:57:15;;;;;;;;;;;2.40;99.90;;;;;;5075280;28;19928;-70
2023/04/04 00:59:42;;;;;;;;;;;2.50;99.90;;;;;;5058631;28;19931;-70
2023/04/04 01:02:07;;;;;;;;;;;2.40;99.90;;;;;;5041451;28;19980;-69
2023/04/04 01:04:33;;;;;;;;;;;2.40;99.90;;;;;;5075302;28;20015;-70
2023/04/04 01:06:59;;;;;;;;;;;2.30;99.90;;;;;;5092653;28;19931;-70
2023/04/04 01:09:25;;;;;;;;;;;2.30;99.90;;;;;;5092829;28;19931;-69
2023/04/04 01:11:52;;;;;;;;;;;2.30;99.90;;;;;;5074611;28;19924;-69
2023/04/04 01:14:17;;;;;;;;;;;2.30;99.90;;;;;;5058247;28;19991;-70
2023/04/04 01:16:43;;;;;;;;;;;2.40;99.90;;;;;;5092876;28;19997;-70
2023/04/04 01:19:13;;;;;;;;;;;2.30;99.90;;;;;;5074556;28;20011;-69
2023/04/04 01:21:39;;;;;;;;;;;2.40;99.90;;;;;;5092580;28;19924;-70
2023/04/04 01:24:05;;;;;;;;;;;2.20;99.90;;;;;;5056948;28;20022;-70
2023/04/04 01:26:31;;;;;;;;;;;2.20;99.90;;;;;;5057993;28;19932;-69
2023/04/04 01:28:57;;;;;;;;;;;2.20;99.90;;;;;;5092452;28;19930;-69
2023/04/04 01:31:36;;;;;;;;;;;2.20;99.90;;;;;;5057328;28;19923;-71
2023/04/04 01:34:22;;;;;;;;;;;2.10;99.90;;;;;;5073923;28;19938;-70
2023/04/04 01:37:09;;;;;;;;;;;2.10;99.90;;;;;;5058004;28;20017;-69
2023/04/04 01:39:40;;;;;;;;;;;2.00;99.90;;;;;;5092744;28;19931;-70
2023/04/04 01:42:06;;;;;;;;;;;2.00;99.90;;;;;;5074347;28;19928;-69
2023/04/04 01:44:32;;;;;;;;;;;2.00;99.90;;;;;;5074905;28;19924;-70
2023/04/04 01:46:58;;;;;;;;;;;1.90;99.90;;;;;;5041044;28;19930;-69
2023/04/04 01:49:23;;;;;;;;;;;1.90;99.90;;;;;;5074420;28;19979;-70
2023/04/04 01:51:50;;;;;;;;;;;1.80;99.90;;;;;;5074726;28;19928;-69
2023/04/04 01:54:17;;;;;;;;;;;1.80;99.90;;;;;;5073880;28;19920;-69
2023/04/04 01:56:46;;;;;;;;;;;1.80;99.90;;;;;;5074563;28;19924;-70
2023/04/04 01:59:12;;;;;;;;;;;1.80;99.90;;;;;;5091845;28;19977;-69
2023/04/04 02:01:37;;;;;;;;;;;1.70;99.90;;;;;;5057543;28;19924;-70
2023/04/04 02:04:03;;;;;;;;;;;1.70;99.90;;;;;;5057344;28;20320;-69
2023/04/04 02:06:29;;;;;;;;;;;1.70;99.90;;;;;;5074254;28;19931;-69
2023/04/04 02:08:55;;;;;;;;;;;1.70;99.90;;;;;;5074312;28;19924;-70
2023/04/04 02:11:24;;;;;;;;;;;1.60;99.90;;;;;;5074208;28;20019;-69
2023/04/04 02:13:50;;;;;;;;;;;1.60;99.90;;;;;;5074169;28;20285;-70
2023/04/04 02:16:15;;;;;;;;;;;1.60;99.90;;;;;;5057146;28;19931;-70
2023/04/04 02:18:41;;;;;;;;;;;1.50;99.90;;;;;;5057599;28;20266;-71
2023/04/04 02:21:07;;;;;;;;;;;1.50;99.90;;;;;;5073742;28;19931;-70
2023/04/04 02:23:32;;;;;;;;;;;1.50;99.90;;;;;;5057605;28;19928;-69
2023/04/04 02:25:58;;;;;;;;;;;1.50;99.90;;;;;;5057438;28;20388;-69
2023/04/04 02:28:24;;;;;;;;;;;1.50;99.90;;;;;;5073677;28;19982;-69
2023/04/04 02:30:49;;;;;;;;;;;1.50;99.90;;;;;;5091871;28;19935;-70
2023/04/04 02:33:15;;;;;;;;;;;1.50;99.90;;;;;;5091572;28;19924;-70
2023/04/04 02:35:41;;;;;;;;;;;1.50;99.90;;;;;;5077536;28;19924;-69
2023/04/04 02:38:07;;;;;;;;;;;1.50;99.90;;;;;;5060986;28;19924;-70
2023/04/04 02:40:32;;;;;;;;;;;1.50;99.90;;;;;;5061387;28;20014;-70
2023/04/04 02:42:58;;;;;;;;;;;1.50;99.90;;;;;;5077937;28;19924;-69
2023/04/04 02:45:23;;;;;;;;;;;1.50;99.90;;;;;;5094911;28;19928;-69
2023/04/04 02:47:49;;;;;;;;;;;1.50;99.90;;;;;;5060730;28;19981;-70
2023/04/04 02:50:16;;;;;;;;;;;1.50;99.90;;;;;;5077632;28;19931;-70
2023/04/04 02:52:41;;;;;;;;;;;1.40;99.90;;;;;;5077957;28;19932;-69
2023/04/04 02:55:07;;;;;;;;;;;1.40;99.90;;;;;;5077294;28;19924;-69
2023/04/04 02:57:33;;;;;;;;;;;1.40;99.90;;;;;;5077146;28;19927;-70
2023/04/04 02:59:59;;;;;;;;;;;1.40;99.90;;;;;;5060719;28;20057;-69
2023/04/04 03:02:25;;;;;;;;;;;1.40;99.90;;;;;;5077238;28;19920;-70
2023/04/04 03:04:50;;;;;;;;;;;1.40;99.90;;;;;;5060998;28;20357;-71
2023/04/04 03:07:16;;;;;;;;;;;1.30;99.90;;;;;;5077164;28;20018;-69
2023/04/04 03:09:44;;;;;;;;;;;1.30;99.90;;;;;;5060768;28;20014;-70
2023/04/04 03:12:10;;;;;;;;;;;1.30;99.90;;;;;;5095009;28;19943;-70
2023/04/04 03:14:35;;;;;;;;;;;1.20;99.90;;;;;;5077678;28;19973;-70
2023/04/04 03:17:02;;;;;;;;;;;1.20;99.90;;;;;;5077519;28;20020;-70
2023/04/04 03:19:28;;;;;;;;;;;1.20;99.90;;;;;;5094822;28;19931;-70
2023/04/04 03:21:54;;;;;;;;;;;1.20;99.90;;;;;;5060559;28;19927;-69
2023/04/04 03:24:19;;;;;;;;;;;1.20;99.90;;;;;;5094666;28;19979;-69
2023/04/04 03:26:45;;;;;;;;;;;1.20;99.90;;;;;;5060483;28;20385;-70
2023/04/04 03:29:10;;;;;;;;;;;1.10;99.90;;;;;;5076543;28;19924;-70
2023/04/04 03:31:36;;;;;;;;;;;1.10;99.90;;;;;;5094789;28;19964;-69
2023/04/04 03:34:03;;;;;;;;;;;1.10;99.90;;;;;;5043790;28;19924;-69
2023/04/04 03:36:29;;;;;;;;;;;1.10;99.90;;;;;;5076577;28;20590;-70
2023/04/04 03:38:55;;;;;;;;;;;1.10;99.90;;;;;;5076824;28;19969;-70
2023/04/04 03:41:21;;;;;;;;;;;1.00;99.90;;;;;;5059977;28;19924;-69
2023/04/04 03:43:47;;;;;;;;;;;1.00;99.90;;;;;;5060235;28;19928;-69
2023/04/04 03:46:13;;;;;;;;;;;1.00;99.90;;;;;;5075071;28;19931;-69
2023/04/04 03:48:38;;;;;;;;;;;1.00;99.90;;;;;;5076554;28;19923;-70
2023/04/04 03:51:04;;;;;;;;;;;1.00;99.90;;;;;;5076595;28;20350;-68
2023/04/04 03:53:30;;;;;;;;;;;1.00;99.90;;;;;;5042994;28;19931;-69
2023/04/04 03:55:55;;;;;;;;;;;1.00;99.90;;;;;;5076391;28;20017;-69
2023/04/04 03:58:21;;;;;;;;;;;1.00;99.90;;;;;;5093813;28;19931;-69
2023/04/04 04:00:47;;;;;;;;;;;0.90;99.90;;;;;;5059817;28;20285;-70
2023/04/04 04:03:13;;;;;;;;;;;0.90;99.90;;;;;;5076129;28;19931;-68
2023/04/04 04:05:38;;;;;;;;;;;0.90;99.90;;;;;;5059783;28;19931;-69
2023/04/04 04:08:04;;;;;;;;;;;0.90;99.90;;;;;;5076437;28;19932;-69
2023/04/04 04:10:30;;;;;;;;;;;0.90;99.90;;;;;;5075928;28;19974;-68
2023/04/04 04:12:56;;;;;;;;;;;1.30;99.90;;;;;;5059474;28;20377;-69
2023/04/04 04:15:22;;;;;;;;;;;0.90;99.90;;;;;;5075776;28;19931;-70
2023/04/04 04:17:47;;;;;;;;;;;0.90;99.90;;;;;;5059258;28;20284;-68
2023/04/04 04:20:13;;;;;;;;;;;0.90;99.90;;;;;;5076067;28;20444;-69
2023/04/04 04:22:44;;;;;;;;;;;0.90;99.90;;;;;;5058952;28;19924;-71
2023/04/04 04:25:09;;;;;;;;;;;0.80;99.90;;;;;;5075687;28;19932;-70
2023/04/04 04:27:35;;;;;;;;;;;0.80;99.90;;;;;;5093396;28;19920;-69
2023/04/04 04:30:01;;;;;;;;;;;0.80;99.90;;;;;;5059321;28;20381;-69
2023/04/04 04:32:27;;;;;;;;;;;0.80;99.90;;;;;;5075061;28;19924;-70
2023/04/04 04:34:52;;;;;;;;;;;0.90;99.90;;;;;;5058790;28;19931;-69
2023/04/04 04:37:18;;;;;;;;;;;0.80;99.90;;;;;;5093142;28;19924;-69
2023/04/04 04:39:43;;;;;;;;;;;0.80;99.90;;;;;;5075362;28;19928;-69
2023/04/04 04:42:09;;;;;;;;;;;0.90;99.90;;;;;;5075244;28;20021;-70
2023/04/04 04:44:35;;;;;;;;;;;0.80;99.90;;;;;;5074914;28;20379;-70
2023/04/04 04:47:02;;;;;;;;;;;0.80;99.90;;;;;;5042353;28;19928;-69
2023/04/04 04:49:27;;;;;;;;;;;0.70;99.90;;;;;;5058241;28;19977;-70
2023/04/04 04:51:53;;;;;;;;;;;0.60;99.90;;;;;;5074698;28;19928;-69
2023/04/04 04:54:18;;;;;;;;;;;0.60;99.90;;;;;;5058779;28;20019;-69
2023/04/04 04:56:44;;;;;;;;;;;0.60;99.90;;;;;;5057897;28;19924;-69
2023/04/04 04:59:11;;;;;;;;;;;0.60;99.90;;;;;;5074440;28;20015;-70
2023/04/04 05:01:37;;;;;;;;;;;0.90;99.90;;;;;;5074382;28;19924;-71
2023/04/04 05:04:03;;;;;;;;;;;0.70;99.90;;;;;;5092833;28;20033;-71
2023/04/04 05:06:29;;;;;;;;;;;0.50;99.90;;;;;;5058227;28;20045;-70
2023/04/04 05:08:54;;;;;;;;;;;0.50;99.90;;;;;;5074782;28;19924;-71
2023/04/04 05:11:26;;;;;;;;;;;0.50;99.90;;;;;;5074583;28;20468;-69
2023/04/04 05:13:54;;;;;;;;;;;0.50;99.90;;;;;;5092700;28;19928;-71
2023/04/04 05:16:20;;;;;;;;;;;0.50;99.90;;;;;;5074708;28;20385;-68
2023/04/04 05:18:46;;;;;;;;;;;0.50;99.90;;;;;;5074556;28;20322;-69
2023/04/04 05:21:11;;;;;;;;;;;0.50;99.90;;;;;;5041215;28;19931;-68
2023/04/04 05:23:37;;;;;;;;;;;0.60;99.90;;;;;;5057551;28;19980;-69
2023/04/04 05:26:02;;;;;;;;;;;0.60;99.90;;;;;;5074651;28;19974;-67
2023/04/04 05:28:28;;;;;;;;;;;0.60;99.90;;;;;;5040967;28;19924;-68
2023/04/04 05:30:53;;;;;;;;;;;0.70;99.90;;;;;;5092361;28;19932;-70
2023/04/04 05:33:19;;;;;;;;;;;0.80;99.90;;;;;;5074062;28;20072;-67
2023/04/04 05:35:45;;;;;;;;;;;0.90;99.90;;;;;;5074225;28;19938;-67
2023/04/04 05:38:11;;;;;;;;;;;1.00;99.90;;;;;;5074031;28;19928;-68
2023/04/04 05:40:36;;;;;;;;;;;1.30;99.90;;;;;;5073895;28;20139;-69
2023/04/04 05:43:03;;;;;;;;;;;1.10;99.90;;;;;;5074686;28;19946;-69
2023/04/04 05:45:29;;;;;;;;;;;1.90;99.90;;;;;;5073762;28;20377;-68
2023/04/04 05:47:55;;;;;;;;;;;1.30;99.90;;;;;;5074808;28;19931;-68
2023/04/04 05:50:20;;;;;;;;;;;1.40;99.90;;;;;;5074529;28;20014;-68
2023/04/04 05:52:46;;;;;;;;;;;1.70;99.90;;;;;;5074046;28;19931;-67
2023/04/04 05:55:12;;;;;;;;;;;2.00;99.90;;;;;;5092389;28;19947;-68
2023/04/04 05:57:46;;;;;;;;;;;2.10;99.90;;;;;;5057329;28;19924;-68
2023/04/04 06:00:12;;;;;;;;;;;2.20;99.90;;;;;;5074521;28;19924;-67
2023/04/04 06:02:37;;;;;;;;;;;2.20;99.90;;;;;;5091743;28;19977;-68
2023/04/04 06:05:03;;;;;;;;;;;2.50;99.90;;;;;;5057554;28;19978;-68
2023/04/04 06:07:29;;;;;;;;;;;3.20;99.90;;;;;;5057251;28;19971;-68
2023/04/04 06:09:55;;;;;;;;;;;4.10;99.90;;;;;;5076393;28;19968;-68
2023/04/04 06:12:20;;;;;;;;;;;4.90;99.90;;;;;;5078140;28;20352;-67
2023/04/04 06:14:46;;;;;;;;;;;5.30;99.90;;;;;;5061140;28;20014;-68
2023/04/04 06:17:11;;;;;;;;;;;5.20;99.90;;;;;;5078063;28;19924;-68
2023/04/04 06:19:37;;;;;;;;;;;4.90;99.90;;;;;;5044647;28;20000;-67
2023/04/04 06:22:03;;;;;;;;;;;4.60;99.90;;;;;;5096185;28;20456;-67
2023/04/04 06:24:28;;;;;;;;;;;4.40;99.90;;;;;;5077419;28;19947;-71
2023/04/04 06:26:54;;;;;;;;;;;4.40;99.90;;;;;;5077791;28;19928;-70
2023/04/04 06:29:19;;;;;;;;;;;4.90;99.90;;;;;;5078058;28;20430;-71
2023/04/04 06:31:45;;;;;;;;;;;5.50;99.90;;;;;;5043993;28;19978;-68
2023/04/04 06:34:10;;;;;;;;;;;5.90;99.90;;;;;;5077754;28;19924;-69
2023/04/04 06:36:36;;;;;;;;;;;6.20;99.90;;;;;;5077185;28;19943;-69
2023/04/04 06:39:02;;;;;;;;;;;6.50;99.90;;;;;;5061599;28;19924;-70
2023/04/04 06:41:27;;;;;;;;;;;6.80;99.90;;;;;;5060825;28;20066;-68
2023/04/04 06:43:53;;;;;;;;;;;7.20;99.90;;;;;;5094928;28;19924;-69
2023/04/04 06:46:18;;;;;;;;;;;7.50;99.90;;;;;;5060996;28;19924;-69
2023/04/04 06:48:44;;;;;;;;;;;7.90;99.90;;;;;;5077472;28;19977;-68
2023/04/04 06:51:10;;;;;;;;;;;8.30;99.90;;;;;;5044397;28;19986;-69
2023/04/04 06:53:36;;;;;;;;;;;8.80;99.90;;;;;;5095616;28;20452;-70
2023/04/04 06:56:02;;;;;;;;;;;9.10;99.90;;;;;;5077459;28;19971;-68
2023/04/04 06:58:27;;;;;;;;;;;9.60;99.90;;;;;;5095449;28;19986;-69
2023/04/04 07:00:55;;;;;;;;;;;9.90;99.90;;;;;;5077203;28;20335;-68
2023/04/04 07:03:22;;;;;;;;;;;10.20;99.90;;;;;;5077384;28;20334;-69
2023/04/04 07:05:48;;;;;;;;;;;10.30;99.90;;;;;;5077242;28;19931;-68
2023/04/04 07:08:13;;;;;;;;;;;10.10;99.90;;;;;;5077514;28;20274;-69
2023/04/04 07:10:39;;;;;;;;;;;10.10;99.10;;;;;;5076944;28;19925;-70
2023/04/04 07:13:04;;;;;;;;;;;10.20;97.50;;;;;;5076999;28;19924;-68
2023/04/04 07:15:30;;;;;;;;;;;10.60;99.90;;;;;;5060687;28;19969;-69
2023/04/04 07:17:55;;;;;;;;;;;10.50;95.60;;;;;;5094859;28;20312;-69
2023/04/04 07:20:23;;;;;;;;;;;10.70;98.80;;;;;;5059887;28;20210;-69
2023/04/04 07:22:48;;;;;;;;;;;10.90;97.80;;;;;;5094719;28;19970;-68
2023/04/04 07:25:14;;;;;;;;;;;11.00;97.00;;;;;;5076849;28;19981;-67
2023/04/04 07:27:40;;;;;;;;;;;11.30;98.60;;;;;;5095073;28;19924;-68
2023/04/04 07:30:07;;;;;;;;;;;11.80;98.70;;;;;;5094906;28;20281;-67
2023/04/04 07:32:32;;;;;;;;;;;12.20;98.00;;;;;;5059745;28;20385;-67
2023/04/04 07:34:58;;;;;;;;;;;12.30;94.10;;;;;;5076632;28;19971;-68
2023/04/04 07:37:25;;;;;;;;;;;12.60;95.80;;;;;;5059899;28;19928;-68
2023/04/04 07:39:51;;;;;;;;;;;13.10;96.90;;;;;;5076190;28;19931;-68
2023/04/04 07:42:21;;;;;;;;;;;13.40;91.40;;;;;;5076604;28;19943;-68
2023/04/04 07:44:50;;;;;;;;;;;13.80;94.70;;;;;;5076444;28;20366;-68
2023/04/04 07:47:16;;;;;;;;;;;14.40;93.70;;;;;;5060084;28;19924;-68
2023/04/04 07:49:42;;;;;;;;;;;14.70;92.80;;;;;;5076822;28;19931;-68
2023/04/04 07:52:08;;;;;;;;;;;15.00;88.50;;;;;;5076252;28;19928;-68
2023/04/04 07:54:34;;;;;;;;;;;15.30;92.70;;;;;;5060033;28;19934;-67
2023/04/04 07:56:59;;;;;;;;;;;15.40;92.30;;;;;;5059537;28;19931;-67
2023/04/04 07:59:25;;;;;;;;;;;15.80;91.80;;;;;;5076643;28;19927;-69
2023/04/04 08:01:51;;;;;;;;;;;;;;;;;;5075705;28;19931;-69
2023/04/04 08:04:16;;;;;;;;;;;16.00;89.30;;;;;;5076268;28;19924;-68
2023/04/04 08:06:42;;;;;;;;;;;17.30;90.90;;;;;;5076485;28;20377;-68
2023/04/04 08:09:08;;;;;;;;;;;17.60;90.40;;;;;;5059266;28;20018;-68
2023/04/04 08:11:34;;;;;;;;;;;18.00;82.00;;;;;;5042868;28;19928;-69
2023/04/04 08:13:59;;;;;;;;;;;18.00;87.60;;;;;;5093629;28;19924;-69
2023/04/04 08:16:25;;;;;;;;;;;18.10;83.10;;;;;;5059462;28;20038;-69
2023/04/04 08:18:51;;;;;;;;;;;18.20;87.00;;;;;;5075608;28;19932;-69
2023/04/04 08:21:18;;;;;;;;;;;18.20;85.00;;;;;;5043032;28;19924;-68
2023/04/04 08:23:43;;;;;;;;;;;18.00;82.20;;;;;;5076224;28;19931;-68
2023/04/04 08:26:10;;;;;;;;;;;18.00;79.50;;;;;;5059146;28;19924;-70
2023/04/04 08:28:36;;;;;;;;;;;18.00;78.40;;;;;;5075988;28;19923;-67
2023/04/04 08:31:03;;;;;;;;;;;18.20;77.30;;;;;;5058678;28;20051;-68
2023/04/04 08:33:28;;;;;;;;;;;18.10;80.30;;;;;;5093391;28;19924;-69
2023/04/04 08:35:56;;;;;;;;;;;18.40;79.40;;;;;;5075425;28;20022;-68
2023/04/04 08:38:21;;;;;;;;;;;17.80;75.60;;;;;;5042322;28;19924;-68
2023/04/04 08:40:48;;;;;;;;;;;17.90;75.50;;;;;;5058791;28;19930;-69
2023/04/04 08:43:14;;;;;;;;;;;18.40;80.60;;;;;;5075028;28;19920;-68
2023/04/04 08:45:44;;;;;;;;;;;18.40;74.40;;;;;;5075180;28;19931;-68
2023/04/04 08:48:10;;;;;;;;;;;18.30;78.20;;;;;;5075059;28;19925;-67
2023/04/04 08:50:36;;;;;;;;;;;18.10;72.20;;;;;;5058542;28;19924;-68
2023/04/04 08:53:04;;;;;;;;;;;18.00;75.30;;;;;;5093227;28;19924;-70
2023/04/04 08:55:31;;;;;;;;;;;17.30;73.50;;;;;;5075280;28;19977;-69
2023/04/04 08:57:57;;;;;;;;;;;17.10;75.30;;;;;;5092748;28;19920;-69
2023/04/04 09:00:22;;;;;;;;;;;17.20;74.50;;;;;;5058759;28;20065;-69
2023/04/04 09:02:56;;;;;;;;;;;17.20;74.80;;;;;;5093401;28;19969;-69
2023/04/04 09:05:23;;;;;;;;;;;17.30;74.60;;;;;;5093221;28;19930;-70
2023/04/04 09:07:49;;;;;;;;;;;17.40;73.10;;;;;;5074576;28;20400;-68
2023/04/04 09:10:15;;;;;;;;;;;17.60;76.30;;;;;;5057965;28;20164;-69
2023/04/04 09:12:41;;;;;;;;;;;17.60;71.40;;;;;;5074860;28;20019;-69
2023/04/04 09:15:07;;;;;;;;;;;17.80;74.30;;;;;;5058243;28;19975;-69
2023/04/04 09:17:33;;;;;;;;;;;18.20;75.40;;;;;;5074701;28;20310;-69
2023/04/04 09:20:05;;;;;;;;;;;18.50;69.10;;;;;;5092634;28;19924;-70
2023/04/04 09:22:31;;;;;;;;;;;19.00;71.20;;;;;;5075014;28;19928;-69
2023/04/04 09:24:57;;;;;;;;;;;19.00;70.00;;;;;;5041718;28;19985;-69
2023/04/04 09:27:22;;;;;;;;;;;19.00;71.80;;;;;;5092605;28;19979;-69
2023/04/04 09:29:48;;;;;;;;;;;18.20;69.70;;;;;;5092638;28;19960;-70
2023/04/04 09:32:17;;;;;;;;;;;16.90;69.20;;;;;;5073863;28;19928;-69
2023/04/04 09:34:44;;;;;;;;;;;16.20;70.80;;;;;;5092492;28;20007;-69
2023/04/04 09:37:13;;;;;;;;;;;15.20;69.60;;;;;;5057610;28;19928;-69
2023/04/04 09:39:39;;;;;;;;;;;14.40;71.20;;;;;;5074630;28;19924;-68
2023/04/04 09:42:05;;;;;;;;;;;13.60;71.60;;;;;;5074370;28;19950;-69
2023/04/04 09:44:32;;;;;;;;;;;13.00;72.60;;;;;;5040651;28;19924;-68
2023/04/04 09:47:17;;;;;;;;;;;12.80;73.40;;;;;;5074633;28;19924;-66
2023/04/04 09:49:42;;;;;;;;;;;12.50;73.40;;;;;;5092203;28;19924;-68
2023/04/04 09:52:16;;;;;;;;;;;12.10;75.60;;;;;;5074119;28;19924;-67
2023/04/04 09:54:42;;;;;;;;;;;11.90;74.90;;;;;;5074677;28;20328;-68
2023/04/04 09:57:07;;;;;;;;;;;11.50;75.70;;;;;;5074037;28;19924;-67
2023/04/04 09:59:33;;;;;;;;;;;11.00;76.20;;;;;;5074218;28;19970;-69
2023/04/04 10:02:01;;;;;;;;;;;10.80;78.50;;;;;;5057414;28;20019;-69
2023/04/04 10:04:30;;;;;;;;;;;11.00;78.70;;;;;;5057402;28;19973;-69
2023/04/04 10:06:58;;;;;;;;;;;11.10;77.60;;;;;;5092251;28;19924;-69
2023/04/04 10:09:23;;;;;;;;;;;11.10;78.20;;;;;;5091954;28;19943;-68
2023/04/04 10:11:49;;;;;;;;;;;11.30;78.10;;;;;;5092207;28;19924;-68
2023/04/04 10:14:15;;;;;;;;;;;11.50;78.10;;;;;;5091825;28;19932;-67
2023/04/04 10:16:44;;;;;;;;;;;11.40;77.80;;;;;;5057241;28;19943;-68
2023/04/04 10:19:10;;;;;;;;;;;11.30;77.70;;;;;;5091887;28;19924;-69
2023/04/04 10:21:36;;;;;;;;;;;11.20;77.70;;;;;;5074160;28;19924;-69
2023/04/04 10:24:07;;;;;;;;;;;11.30;78.90;;;;;;5057595;28;19931;-69
2023/04/04 10:26:33;;;;;;;;;;;11.40;78.50;;;;;;5091969;28;20028;-68
2023/04/04 10:28:59;;;;;;;;;;;11.40;78.70;;;;;;5057176;28;19928;-67
2023/04/04 10:31:25;;;;;;;;;;;11.40;78.70;;;;;;5091379;28;19954;-68
2023/04/04 10:33:59;;;;;;;;;;;11.40;79.60;;;;;;5092035;28;20027;-68
2023/04/04 10:36:28;;;;;;;;;;;11.30;79.20;;;;;;5073710;28;19967;-69
2023/04/04 10:38:58;;;;;;;;;;;11.10;79.60;;;;;;5091918;28;19978;-69
2023/04/04 10:41:25;;;;;;;;;;;11.10;78.70;;;;;;5091593;28;19928;-69
2023/04/04 10:43:54;;;;;;;;;;;11.10;80.70;;;;;;5057405;28;20010;-69
2023/04/04 10:46:21;;;;;;;;;;;11.30;80.10;;;;;;5091605;28;19924;-70
2023/04/04 10:48:47;;;;;;;;;;;11.40;80.50;;;;;;5074097;28;19924;-70
2023/04/04 10:51:13;;;;;;;;;;;11.40;80.70;;;;;;5073795;28;20384;-70
2023/04/04 10:53:39;;;;;;;;;;;11.40;80.40;;;;;;5073456;28;19924;-68
2023/04/04 10:56:05;;;;;;;;;;;11.30;79.50;;;;;;5076268;28;19973;-69
2023/04/04 10:58:31;;;;;;;;;;;11.20;80.30;;;;;;5095240;28;20295;-69
2023/04/04 11:00:58;;;;;;;;;;;11.10;80.70;;;;;;5095481;28;19924;-69
2023/04/04 11:03:24;;;;;;;;;;;11.20;80.90;;;;;;5077407;28;20009;-70
2023/04/04 11:05:50;;;;;;;;;;;11.20;80.20;;;;;;5095471;28;20304;-70
2023/04/04 11:08:24;;;;;;;;;;;11.10;80.30;;;;;;5076988;28;19932;-70
2023/04/04 11:10:53;;;;;;;;;;;11.00;80.80;;;;;;5077366;28;19928;-69
2023/04/04 11:13:33;;;;;;;;;;;10.80;79.20;;;;;;5094996;28;19924;-69
2023/04/04 11:16:00;;;;;;;;;;;10.80;80.70;;;;;;5095253;28;19946;-69
2023/04/04 11:18:42;;;;;;;;;;;10.90;79.50;;;;;;5076728;28;19924;-70
2023/04/04 11:21:08;;;;;;;;;;;11.00;80.60;;;;;;5077030;28;20424;-70
2023/04/04 11:23:57;;;;;;;;;;;11.20;80.50;;;;;;5060219;28;20539;-70
2023/04/04 11:26:29;;;;;;;;;;;11.20;79.50;;;;;;5076668;28;19932;-69
2023/04/04 11:28:55;;;;;;;;;;;11.20;79.30;;;;;;5076981;28;19924;-71
2023/04/04 11:31:22;;;;;;;;;;;10.90;78.30;;;;;;5076045;28;19931;-70
2023/04/04 11:34:04;;;;;;;;;;;10.80;79.20;;;;;;5077011;28;19931;-68
2023/04/04 11:39:15;;;;;;;;;;;10.70;80.50;;;;;;5076834;28;19924;-70
2023/04/04 11:42:04;;;;;;;;;;;10.90;79.40;;;;;;5059673;28;20285;-70
2023/04/04 11:44:31;;;;;;;;;;;11.00;79.90;;;;;;5076412;28;19931;-69
2023/04/04 11:47:03;;;;;;;;;;;11.10;79.50;;;;;;5077029;28;19982;-69
2023/04/04 11:49:29;;;;;;;;;;;11.10;77.80;;;;;;5059603;28;20018;-69
2023/04/04 11:51:56;;;;;;;;;;;11.00;76.60;;;;;;5060139;28;20024;-69
2023/04/04 11:54:22;;;;;;;;;;;10.80;77.10;;;;;;5094298;28;20016;-69
2023/04/04 11:56:47;;;;;;;;;;;10.70;77.40;;;;;;5060125;28;20301;-69
2023/04/04 11:59:17;;;;;;;;;;;10.80;77.00;;;;;;5076597;28;19935;-68
2023/04/04 12:01:43;;;;;;;;;;;10.90;78.00;;;;;;5059711;28;19924;-70
2023/04/04 12:04:09;;;;;;;;;;;10.90;77.90;;;;;;5094283;28;19924;-69
2023/04/04 12:06:36;;;;;;;;;;;10.90;77.70;;;;;;5093109;28;19969;-69
2023/04/04 12:09:02;;;;;;;;;;;10.90;77.90;;;;;;5076392;28;19938;-69
2023/04/04 12:11:29;;;;;;;;;;;11.00;76.50;;;;;;5094026;28;20056;-69
2023/04/04 12:13:54;;;;;;;;;;;11.10;77.40;;;;;;5059632;28;19932;-69
2023/04/04 12:16:20;;;;;;;;;;;11.20;75.10;;;;;;5059159;28;19924;-69
2023/04/04 12:18:46;;;;;;;;;;;11.20;77.00;;;;;;5093727;28;19924;-69
2023/04/04 12:21:11;;;;;;;;;;;11.20;77.50;;;;;;5093859;28;19985;-68
2023/04/04 12:23:37;;;;;;;;;;;11.00;79.40;;;;;;5059402;28;19924;-69
2023/04/04 12:26:04;;;;;;;;;;;10.80;78.80;;;;;;5076106;28;20018;-69
2023/04/04 12:28:32;;;;;;;;;;;10.90;78.20;;;;;;5075632;28;19924;-69
2023/04/04 12:31:03;;;;;;;;;;;11.00;79.90;;;;;;5058876;28;20408;-69
2023/04/04 12:33:30;;;;;;;;;;;11.00;79.40;;;;;;5059204;28;19931;-69
2023/04/04 12:35:55;;;;;;;;;;;11.10;81.20;;;;;;5093467;28;19924;-69
2023/04/04 12:38:21;;;;;;;;;;;11.00;79.90;;;;;;5093579;28;19920;-69
2023/04/04 12:40:50;;;;;;;;;;;10.90;80.70;;;;;;5093265;28;19950;-68
2023/04/04 12:43:16;;;;;;;;;;;10.90;79.10;;;;;;5075452;28;19971;-69
2023/04/04 12:45:42;;;;;;;;;;;10.90;79.40;;;;;;5075200;28;20346;-69
2023/04/04 12:48:10;;;;;;;;;;;10.90;79.80;;;;;;5059052;28;20381;-69
2023/04/04 12:50:47;;;;;;;;;;;10.80;79.20;;;;;;5093472;28;19931;-69
2023/04/04 12:53:12;;;;;;;;;;;10.90;79.30;;;;;;5075468;28;19924;-69
2023/04/04 12:55:38;;;;;;;;;;;10.80;78.20;;;;;;5074942;28;19947;-69
2023/04/04 12:58:03;;;;;;;;;;;10.70;79.20;;;;;;5075322;28;20425;-69
2023/04/04 13:00:29;;;;;;;;;;;10.60;77.80;;;;;;5075193;28;19931;-70
2023/04/04 13:02:55;;;;;;;;;;;10.60;78.60;;;;;;5058626;28;19975;-70
2023/04/04 13:05:24;;;;;;;;;;;10.60;77.90;;;;;;5058486;28;19928;-70
2023/04/04 13:07:50;;;;;;;;;;;10.50;76.30;;;;;;5093003;28;20074;-70
2023/04/04 13:10:17;;;;;;;;;;;10.50;77.20;;;;;;5075291;28;19981;-70
2023/04/04 13:12:54;;;;;;;;;;;10.60;78.80;;;;;;5058492;28;19931;-70
2023/04/04 13:15:19;;;;;;;;;;;10.70;79.30;;;;;;5075092;28;19931;-70
2023/04/04 13:17:46;;;;;;;;;;;10.70;79.10;;;;;;5057715;28;19924;-71
2023/04/04 13:20:12;;;;;;;;;;;10.60;78.40;;;;;;5092847;28;19947;-70
2023/04/04 13:22:38;;;;;;;;;;;10.60;78.10;;;;;;5092533;28;19928;-71
2023/04/04 13:25:05;;;;;;;;;;;10.60;77.00;;;;;;5074929;28;20337;-72
2023/04/04 13:27:31;;;;;;;;;;;10.50;76.70;;;;;;5092599;28;20019;-69
2023/04/04 13:29:56;;;;;;;;;;;10.40;78.70;;;;;;5074760;28;20011;-71
2023/04/04 13:32:22;;;;;;;;;;;10.30;78.00;;;;;;5057819;28;20262;-71
2023/04/04 13:34:48;;;;;;;;;;;10.50;77.00;;;;;;5092250;28;19939;-70
2023/04/04 13:37:13;;;;;;;;;;;10.70;78.10;;;;;;5074562;28;19936;-71
2023/04/04 13:39:39;;;;;;;;;;;10.70;78.60;;;;;;5074518;28;20312;-70
2023/04/04 13:42:04;;;;;;;;;;;10.60;79.40;;;;;;5074428;28;19931;-70
2023/04/04 13:44:30;;;;;;;;;;;10.60;78.70;;;;;;5092574;28;19987;-70
2023/04/04 13:46:55;;;;;;;;;;;10.60;77.80;;;;;;5092278;28;19924;-70
2023/04/04 13:49:21;;;;;;;;;;;10.50;78.30;;;;;;5092213;28;19982;-69
2023/04/04 13:51:47;;;;;;;;;;;10.40;78.00;;;;;;5073976;28;20400;-70
2023/04/04 13:54:12;;;;;;;;;;;10.30;77.30;;;;;;5074037;28;20011;-69
2023/04/04 13:56:38;;;;;;;;;;;10.40;76.80;;;;;;5092013;28;19924;-69
2023/04/04 13:59:04;;;;;;;;;;;10.50;77.50;;;;;;5074223;28;19985;-70
2023/04/04 14:01:30;;;;;;;;;;;10.40;76.90;;;;;;5074318;28;19973;-69
2023/04/04 14:03:55;;;;;;;;;;;10.30;76.90;;;;;;5074019;28;20314;-70
2023/04/04 14:06:21;;;;;;;;;;;10.20;76.70;;;;;;5074429;28;20407;-70
2023/04/04 14:08:47;;;;;;;;;;;10.30;77.60;;;;;;5057382;28;20407;-70
2023/04/04 14:11:13;;;;;;;;;;;10.20;77.00;;;;;;5074467;28;19930;-69
2023/04/04 14:13:38;;;;;;;;;;;10.20;77.30;;;;;;5057376;28;19924;-68
2023/04/04 14:16:05;;;;;;;;;;;10.10;76.10;;;;;;5092056;28;19927;-69
2023/04/04 14:18:31;;;;;;;;;;;10.10;77.60;;;;;;5092204;28;19924;-70
2023/04/04 14:20:56;;;;;;;;;;;10.10;78.20;;;;;;5057434;28;20357;-69
2023/04/04 14:23:22;;;;;;;;;;;10.20;77.70;;;;;;5057511;28;20389;-70